Time;durP1;ratioP1;P1;durP2;ratioP2;P2;SDS_P1;SDS_P2;PMS_P1;PMS_P2;Temp;Humidity;BMP_temperature;BMP_pressure;BME280_temperature;BME280_humidity;BME280_pressure;Samples;Min_cycle;Max_cycle;Signal;HPM_P1;HPM_P2
2022/05/09 00:01:53;;;;;;;13.67;4.67;;;;;;;;;;4978655;28;20226;-82
2022/05/09 00:05:04;;;;;;;8.87;4.20;;;;;;;;;;5000646;28;20221;-80
2022/05/09 00:07:30;;;;;;;11.10;4.33;;;;;;;;;;4979723;28;20244;-80
2022/05/09 00:09:55;;;;;;;12.27;4.10;;;;;;;;;;5006620;28;20222;-78
2022/05/09 00:12:23;;;;;;;8.87;4.67;;;;;;;;;;5015544;28;20225;-79
2022/05/09 00:14:48;;;;;;;16.50;4.73;;;;;;;;;;4991547;28;20230;-79
2022/05/09 00:17:14;;;;;;;13.47;5.17;;;;;;;;;;4976524;28;20294;-80
2022/05/09 00:19:39;;;;;;;15.47;4.43;;;;;;;;;;4995645;28;20264;-78
2022/05/09 00:22:08;;;;;;;12.17;4.40;;;;;;;;;;4984139;28;20309;-80
2022/05/09 00:24:33;;;;;;;11.23;4.10;;;;;;;;;;4978089;28;20236;-79
2022/05/09 00:26:59;;;;;;;9.00;4.57;;;;;;;;;;4997592;28;20340;-81
2022/05/09 00:29:27;;;;;;;10.13;4.07;;;;;;;;;;4994080;28;20348;-79
2022/05/09 00:31:55;;;;;;;9.40;4.43;;;;;;;;;;4980201;28;20229;-80
2022/05/09 00:34:23;;;;;;;13.00;4.27;;;;;;;;;;4992346;28;20603;-81
2022/05/09 00:36:48;;;;;;;10.83;4.23;;;;;;;;;;4973214;28;20262;-81
2022/05/09 00:39:14;;;;;;;11.77;4.30;;;;;;;;;;4993854;28;20225;-80
2022/05/09 00:41:42;;;;;;;10.50;4.30;;;;;;;;;;4969233;28;20218;-81
2022/05/09 00:44:11;;;;;;;12.23;4.90;;;;;;;;;;4981358;28;20277;-82
2022/05/09 00:46:37;;;;;;;10.77;4.23;;;;;;;;;;4994701;28;20245;-82
2022/05/09 00:49:06;;;;;;;8.87;4.23;;;;;;;;;;4975226;28;20249;-82
2022/05/09 00:51:31;;;;;;;13.10;4.50;;;;;;;;;;4996250;28;20237;-81
2022/05/09 00:53:57;;;;;;;11.53;4.33;;;;;;;;;;5002924;28;20245;-81
2022/05/09 00:56:26;;;;;;;10.77;3.90;;;;;;;;;;4989336;28;20230;-81
2022/05/09 00:58:55;;;;;;;13.63;4.13;;;;;;;;;;4998996;28;20232;-80
2022/05/09 01:01:21;;;;;;;9.97;4.17;;;;;;;;;;4970382;28;20218;-81
2022/05/09 01:04:01;;;;;;;12.53;4.33;;;;;;;;;;5004575;28;20289;-79
2022/05/09 01:06:27;;;;;;;11.13;3.90;;;;;;;;;;4994843;28;20619;-81
2022/05/09 01:08:52;;;;;;;8.57;4.17;;;;;;;;;;4978728;28;20272;-79
2022/05/09 01:11:23;;;;;;;10.93;3.80;;;;;;;;;;4997467;28;20220;-80
2022/05/09 01:13:52;;;;;;;8.60;3.87;;;;;;;;;;4980066;28;20369;-79
2022/05/09 01:16:18;;;;;;;7.63;3.50;;;;;;;;;;4984707;28;20217;-79
2022/05/09 01:18:46;;;;;;;7.50;3.40;;;;;;;;;;4980886;28;20222;-78
2022/05/09 01:21:35;;;;;;;7.90;3.90;;;;;;;;;;4997072;28;20217;-81
2022/05/09 01:24:04;;;;;;;7.30;3.60;;;;;;;;;;4983551;28;20244;-81
2022/05/09 01:26:30;;;;;;;8.43;3.70;;;;;;;;;;4978051;28;20577;-78
2022/05/09 01:28:57;;;;;;;8.33;3.73;;;;;;;;;;4973959;28;20374;-80
2022/05/09 01:31:23;;;;;;;7.17;3.33;;;;;;;;;;4990710;28;20588;-81
2022/05/09 01:33:50;;;;;;;6.90;3.23;;;;;;;;;;4974268;28;20229;-81
2022/05/09 01:36:17;;;;;;;6.00;3.37;;;;;;;;;;4983452;28;20238;-80
2022/05/09 01:39:00;;;;;;;5.73;3.13;;;;;;;;;;4986025;28;20307;-79
2022/05/09 01:41:27;;;;;;;8.40;3.27;;;;;;;;;;4993569;28;20225;-80
2022/05/09 01:43:55;;;;;;;8.27;3.80;;;;;;;;;;4981687;28;20237;-78
2022/05/09 01:46:22;;;;;;;7.67;3.27;;;;;;;;;;4961211;28;20226;-82
2022/05/09 01:51:32;;;;;;;7.23;3.90;;;;;;;;;;4994363;28;20953;-81
2022/05/09 01:53:58;;;;;;;6.37;3.00;;;;;;;;;;4981606;28;20280;-78
2022/05/09 01:56:33;;;;;;;5.33;3.40;;;;;;;;;;4999615;28;20949;-80
2022/05/09 01:58:59;;;;;;;5.30;3.03;;;;;;;;;;4968093;28;20232;-79
2022/05/09 02:01:27;;;;;;;7.90;3.27;;;;;;;;;;4974081;28;20222;-81
2022/05/09 02:03:52;;;;;;;7.00;3.00;;;;;;;;;;4988998;28;20237;-81
2022/05/09 02:06:18;;;;;;;6.67;3.40;;;;;;;;;;4985515;28;20229;-79
2022/05/09 02:08:44;;;;;;;4.40;2.90;;;;;;;;;;4987692;28;20799;-80
2022/05/09 02:11:14;;;;;;;7.63;3.17;;;;;;;;;;5005066;28;20596;-78
2022/05/09 02:13:39;;;;;;;6.93;2.70;;;;;;;;;;4981249;28;20222;-80
2022/05/09 02:16:05;;;;;;;7.50;3.03;;;;;;;;;;5000383;28;20716;-82
2022/05/09 02:18:31;;;;;;;6.83;3.03;;;;;;;;;;4958445;28;20599;-80
2022/05/09 02:20:57;;;;;;;6.10;2.80;;;;;;;;;;4989945;28;20635;-81
2022/05/09 02:23:23;;;;;;;5.53;2.93;;;;;;;;;;5002472;28;20284;-80
2022/05/09 02:25:48;;;;;;;7.60;3.00;;;;;;;;;;5000628;28;20394;-79
2022/05/09 02:28:14;;;;;;;6.03;2.77;;;;;;;;;;4983360;28;21411;-80
2022/05/09 02:30:39;;;;;;;6.27;2.83;;;;;;;;;;4976084;28;20245;-80
2022/05/09 02:33:05;;;;;;;8.60;2.97;;;;;;;;;;5000739;28;20715;-81
2022/05/09 02:35:35;;;;;;;5.73;2.50;;;;;;;;;;4982759;28;20218;-81
2022/05/09 02:38:04;;;;;;;4.50;2.40;;;;;;;;;;4974564;28;20218;-79
2022/05/09 02:40:30;;;;;;;4.33;2.67;;;;;;;;;;4971719;28;20307;-82
2022/05/09 02:43:01;;;;;;;6.97;2.60;;;;;;;;;;4961226;28;20229;-81
2022/05/09 02:45:26;;;;;;;6.53;2.70;;;;;;;;;;4956372;28;20624;-79
2022/05/09 02:47:53;;;;;;;7.93;2.40;;;;;;;;;;4990371;28;20225;-80
2022/05/09 02:50:21;;;;;;;9.23;2.73;;;;;;;;;;4973631;28;20309;-80
2022/05/09 02:52:47;;;;;;;5.30;2.30;;;;;;;;;;4988847;28;20612;-82
2022/05/09 02:55:13;;;;;;;6.83;2.60;;;;;;;;;;4984003;28;20717;-79
2022/05/09 02:57:38;;;;;;;6.00;2.67;;;;;;;;;;4959760;28;20225;-81
2022/05/09 03:00:08;;;;;;;6.10;2.50;;;;;;;;;;4974558;28;20224;-79
2022/05/09 03:02:33;;;;;;;4.77;2.87;;;;;;;;;;4995445;28;20228;-82
2022/05/09 03:04:59;;;;;;;5.93;2.50;;;;;;;;;;4970455;28;20772;-80
2022/05/09 03:07:24;;;;;;;3.97;2.13;;;;;;;;;;4982815;28;20240;-80
2022/05/09 03:09:52;;;;;;;6.30;2.50;;;;;;;;;;4985518;28;20282;-80
2022/05/09 03:12:19;;;;;;;7.10;2.50;;;;;;;;;;4974122;28;20785;-79
2022/05/09 03:14:47;;;;;;;7.23;2.60;;;;;;;;;;4985235;28;20234;-80
2022/05/09 03:17:13;;;;;;;4.63;2.17;;;;;;;;;;4977617;28;20323;-81
2022/05/09 03:19:39;;;;;;;4.17;2.60;;;;;;;;;;4984662;28;20304;-81
2022/05/09 03:22:05;;;;;;;7.20;2.70;;;;;;;;;;4976194;28;20225;-81
2022/05/09 03:24:30;;;;;;;6.03;2.50;;;;;;;;;;5009198;28;20281;-77
2022/05/09 03:26:56;;;;;;;6.60;2.50;;;;;;;;;;4967598;28;20770;-81
2022/05/09 03:29:24;;;;;;;7.13;2.60;;;;;;;;;;4969487;28;20231;-80
2022/05/09 03:31:50;;;;;;;5.97;2.80;;;;;;;;;;4983778;28;20236;-80
2022/05/09 03:34:16;;;;;;;5.60;2.50;;;;;;;;;;4960536;28;20233;-79
2022/05/09 03:36:43;;;;;;;9.30;2.93;;;;;;;;;;4973787;28;20661;-78
2022/05/09 03:39:09;;;;;;;8.03;2.70;;;;;;;;;;4986464;28;20251;-79
2022/05/09 03:41:35;;;;;;;6.43;2.50;;;;;;;;;;4981017;28;20310;-79
2022/05/09 03:44:03;;;;;;;8.37;2.50;;;;;;;;;;4986576;28;20229;-78
2022/05/09 03:46:29;;;;;;;7.70;2.80;;;;;;;;;;5000824;28;20225;-76
2022/05/09 03:48:54;;;;;;;6.53;2.50;;;;;;;;;;4989223;28;20320;-78
2022/05/09 03:51:20;;;;;;;7.00;2.87;;;;;;;;;;4995576;28;20221;-78
2022/05/09 03:53:45;;;;;;;4.83;2.40;;;;;;;;;;4984597;28;20367;-77
2022/05/09 03:56:13;;;;;;;5.67;2.20;;;;;;;;;;5002836;28;20233;-78
2022/05/09 03:58:39;;;;;;;6.63;2.63;;;;;;;;;;4970593;28;20317;-78
2022/05/09 04:01:05;;;;;;;8.27;2.50;;;;;;;;;;4978026;28;20284;-77
2022/05/09 04:03:33;;;;;;;6.97;2.70;;;;;;;;;;4979569;28;20229;-77
2022/05/09 04:06:01;;;;;;;7.30;2.20;;;;;;;;;;4978311;28;20229;-79
2022/05/09 04:12:19;;;;;;;5.27;2.13;;;;;;;;;;4985560;28;20737;-78
2022/05/09 04:17:28;;;;;;;4.40;2.20;;;;;;;;;;4991894;28;20227;-77
2022/05/09 04:19:56;;;;;;;7.13;2.60;;;;;;;;;;4986938;28;20225;-79
2022/05/09 04:22:26;;;;;;;6.63;2.60;;;;;;;;;;4992105;28;20241;-77
2022/05/09 04:24:52;;;;;;;5.43;2.53;;;;;;;;;;4989454;28;20593;-78
2022/05/09 04:27:17;;;;;;;4.27;2.20;;;;;;;;;;4986122;28;20221;-76
2022/05/09 04:29:47;;;;;;;8.03;2.43;;;;;;;;;;4987229;28;20225;-79
2022/05/09 04:32:13;;;;;;;7.33;2.57;;;;;;;;;;4985238;28;20241;-78
2022/05/09 04:34:38;;;;;;;6.10;2.20;;;;;;;;;;4990179;28;20233;-78
2022/05/09 04:37:04;;;;;;;6.80;2.17;;;;;;;;;;4987970;28;20237;-77
2022/05/09 04:39:34;;;;;;;4.40;2.03;;;;;;;;;;4967567;28;20229;-79
2022/05/09 04:41:59;;;;;;;6.90;2.30;;;;;;;;;;4972531;28;20233;-77
2022/05/09 04:44:25;;;;;;;7.23;2.20;;;;;;;;;;4980264;28;20295;-78
2022/05/09 04:46:50;;;;;;;5.77;2.30;;;;;;;;;;4981128;28;20229;-77
2022/05/09 04:49:47;;;;;;;4.83;2.13;;;;;;;;;;4968423;28;20240;-76
2022/05/09 04:52:17;;;;;;;4.27;2.23;;;;;;;;;;4992425;28;20354;-79
2022/05/09 04:54:43;;;;;;;5.67;2.20;;;;;;;;;;4991063;28;20230;-78
2022/05/09 04:57:08;;;;;;;4.37;2.17;;;;;;;;;;4969014;28;20233;-77
2022/05/09 04:59:34;;;;;;;5.50;2.30;;;;;;;;;;4962067;28;20309;-79
2022/05/09 05:02:00;;;;;;;5.77;2.30;;;;;;;;;;5000249;28;20221;-79
2022/05/09 05:04:25;;;;;;;6.13;2.47;;;;;;;;;;4997218;28;20287;-79
2022/05/09 05:06:53;;;;;;;5.67;2.20;;;;;;;;;;4981296;28;20229;-78
2022/05/09 05:09:22;;;;;;;5.47;1.90;;;;;;;;;;5008541;28;20225;-78
2022/05/09 05:11:50;;;;;;;7.07;2.80;;;;;;;;;;4992766;28;20230;-78
2022/05/09 05:14:16;;;;;;;5.53;2.57;;;;;;;;;;4984667;28;20294;-79
2022/05/09 05:17:00;;;;;;;6.87;2.93;;;;;;;;;;4985027;28;20236;-77
2022/05/09 05:19:34;;;;;;;5.87;2.10;;;;;;;;;;4983489;28;20320;-79
2022/05/09 05:22:04;;;;;;;4.23;2.20;;;;;;;;;;4972145;28;20225;-78
2022/05/09 05:28:17;;;;;;;6.83;2.47;;;;;;;;;;4988562;28;20253;-79
2022/05/09 05:30:42;;;;;;;5.50;2.20;;;;;;;;;;4978737;28;20691;-81
2022/05/09 05:33:08;;;;;;;5.30;2.40;;;;;;;;;;4995181;28;20780;-79
2022/05/09 05:35:33;;;;;;;7.33;2.73;;;;;;;;;;5001560;28;20309;-79
2022/05/09 05:37:59;;;;;;;6.13;2.40;;;;;;;;;;4986492;28;20240;-81
2022/05/09 05:40:27;;;;;;;7.73;2.50;;;;;;;;;;4992593;28;20319;-81
2022/05/09 05:42:52;;;;;;;5.87;2.27;;;;;;;;;;4982224;28;20229;-82
2022/05/09 05:45:21;;;;;;;8.53;2.60;;;;;;;;;;4965884;28;20214;-83
2022/05/09 05:47:47;;;;;;;6.10;2.30;;;;;;;;;;5004262;28;20229;-82
2022/05/09 05:50:16;;;;;;;5.93;2.50;;;;;;;;;;4993479;28;20253;-80
2022/05/09 05:52:41;;;;;;;5.30;2.43;;;;;;;;;;4979151;28;20229;-79
2022/05/09 05:55:12;;;;;;;6.53;2.10;;;;;;;;;;4996306;28;20309;-82
2022/05/09 05:57:38;;;;;;;5.80;2.47;;;;;;;;;;4993962;28;20304;-80
2022/05/09 06:00:07;;;;;;;5.53;2.23;;;;;;;;;;4992511;28;20225;-80
2022/05/09 06:02:41;;;;;;;6.37;2.47;;;;;;;;;;5016833;28;20213;-84
2022/05/09 06:05:12;;;;;;;8.13;2.57;;;;;;;;;;4997009;28;20220;-83
2022/05/09 06:07:40;;;;;;;6.93;2.40;;;;;;;;;;4984518;28;20228;-84
2022/05/09 06:10:09;;;;;;;6.40;2.27;;;;;;;;;;5008493;28;20230;-87
2022/05/09 06:12:35;;;;;;;5.00;2.20;;;;;;;;;;4994091;28;20245;-83
2022/05/09 06:17:47;;;;;;;8.50;2.47;;;;;;;;;;5001054;28;20205;-84
2022/05/09 06:20:12;;;;;;;5.00;2.00;;;;;;;;;;5001135;23;20316;-73
2022/05/09 06:22:38;;;;;;;5.93;2.50;;;;;;;;;;4999239;28;20244;-74
2022/05/09 06:25:09;;;;;;;6.40;2.30;;;;;;;;;;4972739;28;20583;-73
2022/05/09 06:27:36;;;;;;;5.60;2.33;;;;;;;;;;4998094;28;20229;-74
2022/05/09 06:30:02;;;;;;;8.00;2.53;;;;;;;;;;4979623;28;20232;-75
2022/05/09 06:32:30;;;;;;;4.50;2.10;;;;;;;;;;4981654;28;20222;-74
2022/05/09 06:34:55;;;;;;;7.80;2.40;;;;;;;;;;4985504;28;20237;-73
2022/05/09 06:37:21;;;;;;;5.80;2.03;;;;;;;;;;4988894;28;20226;-74
2022/05/09 06:39:54;;;;;;;5.80;2.40;;;;;;;;;;4998868;28;20246;-72
2022/05/09 06:42:20;;;;;;;5.50;2.20;;;;;;;;;;4988590;28;20226;-74
2022/05/09 06:44:46;;;;;;;4.63;2.40;;;;;;;;;;4983007;28;20234;-75
2022/05/09 06:47:15;;;;;;;4.73;2.10;;;;;;;;;;5000912;28;20239;-74
2022/05/09 06:49:45;;;;;;;6.10;2.07;;;;;;;;;;4988724;28;20244;-73
2022/05/09 06:52:11;;;;;;;6.57;2.30;;;;;;;;;;4997456;28;20319;-73
2022/05/09 06:54:37;;;;;;;7.13;2.27;;;;;;;;;;4963522;28;20234;-75
2022/05/09 06:57:05;;;;;;;5.57;2.03;;;;;;;;;;4970641;28;20218;-74
2022/05/09 06:59:33;;;;;;;5.00;1.83;;;;;;;;;;4986793;28;20676;-74
2022/05/09 07:01:59;;;;;;;7.43;2.13;;;;;;;;;;4980021;28;20300;-75
2022/05/09 07:04:24;;;;;;;5.20;2.40;;;;;;;;;;4986571;28;20283;-75
2022/05/09 07:06:51;;;;;;;7.07;2.30;;;;;;;;;;4988742;28;20221;-77
2022/05/09 07:09:16;;;;;;;6.75;2.63;;;;;;;;;;4971244;28;20239;-77
2022/05/09 07:11:42;;;;;;;6.60;2.20;;;;;;;;;;4972702;28;20746;-76
2022/05/09 07:14:08;;;;;;;5.05;2.20;;;;;;;;;;4988385;28;20288;-75
2022/05/09 07:16:40;;;;;;;6.20;2.40;;;;;;;;;;4988767;28;20237;-76
2022/05/09 07:19:08;;;;;;;6.03;2.45;;;;;;;;;;4987837;28;20671;-74
2022/05/09 07:21:34;;;;;;;4.90;1.90;;;;;;;;;;4981269;28;20300;-75
2022/05/09 07:24:00;;;;;;;5.60;2.10;;;;;;;;;;4995383;28;20232;-75
2022/05/09 07:26:26;;;;;;;6.93;2.42;;;;;;;;;;4964363;28;20305;-75
2022/05/09 07:28:51;;;;;;;3.70;2.07;;;;;;;;;;4969646;28;20669;-73
2022/05/09 07:31:24;;;;;;;6.68;2.47;;;;;;;;;;4965841;28;20224;-74
2022/05/09 07:33:52;;;;;;;9.20;2.58;;;;;;;;;;4983110;28;20225;-76
2022/05/09 07:36:20;;;;;;;6.05;2.47;;;;;;;;;;4983136;28;21723;-75
2022/05/09 07:38:45;;;;;;;7.72;2.70;;;;;;;;;;4969276;28;20237;-76
2022/05/09 07:41:13;;;;;;;5.32;2.60;;;;;;;;;;4969565;28;20280;-75
2022/05/09 07:43:38;;;;;;;5.32;2.10;;;;;;;;;;4966352;28;20226;-73
2022/05/09 07:46:06;;;;;;;6.88;2.30;;;;;;;;;;4985372;28;20229;-76
2022/05/09 07:48:31;;;;;;;6.53;2.30;;;;;;;;;;4980490;28;20593;-75
2022/05/09 07:51:14;;;;;;;;;;;;;;;;;;;;;
2022/05/09 07:53:45;;;;;;;4.88;2.25;;;;;;;;;;4985011;28;20320;-74
2022/05/09 07:56:10;;;;;;;6.65;2.13;;;;;;;;;;4982474;28;20236;-74
2022/05/09 07:58:36;;;;;;;4.00;2.08;;;;;;;;;;4984038;28;20688;-75
2022/05/09 08:01:02;;;;;;;6.80;2.25;;;;;;;;;;4983236;28;20312;-75
2022/05/09 08:03:33;;;;;;;4.68;2.40;;;;;;;;;;4948068;28;20329;-74
2022/05/09 08:06:02;;;;;;;7.20;2.60;;;;;;;;;;4986647;28;20320;-73
2022/05/09 08:08:31;;;;;;;4.03;2.05;;;;;;;;;;4994188;28;20237;-75
2022/05/09 08:10:58;;;;;;;6.00;2.47;;;;;;;;;;4983455;28;20789;-75
2022/05/09 08:13:25;;;;;;;10.70;2.55;;;;;;;;;;4992365;28;20748;-75
2022/05/09 08:15:50;;;;;;;4.95;2.20;;;;;;;;;;4964672;28;20339;-75
2022/05/09 08:18:16;;;;;;;6.35;2.20;;;;;;;;;;4981482;28;20221;-73
2022/05/09 08:20:45;;;;;;;7.78;2.28;;;;;;;;;;4994123;28;20313;-74
2022/05/09 08:23:12;;;;;;;6.07;2.30;;;;;;;;;;4973035;28;20228;-76
2022/05/09 08:25:42;;;;;;;5.28;2.10;;;;;;;;;;4966309;28;20241;-75
2022/05/09 08:28:10;;;;;;;7.18;2.30;;;;;;;;;;4973184;28;20226;-74
2022/05/09 08:30:39;;;;;;;4.88;2.10;;;;;;;;;;4951823;28;20222;-74
2022/05/09 08:33:17;;;;;;;6.43;2.30;;;;;;;;;;4970901;28;20264;-74
2022/05/09 08:35:46;;;;;;;5.82;1.90;;;;;;;;;;4959852;28;20246;-75
2022/05/09 08:38:14;;;;;;;6.40;2.00;;;;;;;;;;4989877;28;20276;-75
2022/05/09 08:40:55;;;;;;;5.75;2.00;;;;;;;;;;4960433;28;20268;-77
2022/05/09 08:43:48;;;;;;;10.23;2.10;;;;;;;;;;4998605;28;20733;-74
2022/05/09 08:46:23;;;;;;;5.57;1.95;;;;;;;;;;4970284;28;20237;-75
2022/05/09 08:49:28;;;;;;;5.57;1.80;;;;;;;;;;4992247;28;20226;-75
2022/05/09 08:52:18;;;;;;;5.20;2.15;;;;;;;;;;4986799;28;20225;-75
2022/05/09 08:54:46;;;;;;;4.07;1.90;;;;;;;;;;5002215;28;20244;-77
2022/05/09 08:57:17;;;;;;;6.10;2.08;;;;;;;;;;4973813;28;20224;-76
2022/05/09 08:59:51;;;;;;;5.50;2.10;;;;;;;;;;4988887;28;20244;-75
2022/05/09 09:02:25;;;;;;;4.82;2.00;;;;;;;;;;4972555;28;20244;-74
2022/05/09 09:04:58;;;;;;;4.05;1.88;;;;;;;;;;4970291;28;20264;-75
2022/05/09 09:07:45;;;;;;;5.13;2.10;;;;;;;;;;4970489;28;20233;-76
2022/05/09 09:10:20;;;;;;;5.07;2.00;;;;;;;;;;4987962;28;20232;-74
2022/05/09 09:13:19;;;;;;;4.85;2.08;;;;;;;;;;4981386;28;20222;-75
2022/05/09 09:16:04;;;;;;;5.65;2.50;;;;;;;;;;4965230;28;20691;-74
2022/05/09 09:18:50;;;;;;;5.03;2.10;;;;;;;;;;4997809;28;20225;-76
2022/05/09 09:21:35;;;;;;;4.15;1.85;;;;;;;;;;5002828;28;20222;-74
2022/05/09 09:24:37;;;;;;;6.93;2.13;;;;;;;;;;4988318;28;20225;-75
2022/05/09 09:27:44;;;;;;;7.50;2.42;;;;;;;;;;4969672;28;20205;-73
2022/05/09 09:30:13;;;;;;;4.38;2.28;;;;;;;;;;4957837;28;20248;-75
2022/05/09 09:32:42;;;;;;;5.10;1.98;;;;;;;;;;4966400;28;20773;-75
2022/05/09 09:35:26;;;;;;;4.68;2.47;;;;;;;;;;5002649;28;20229;-73
2022/05/09 09:38:18;;;;;;;4.45;1.92;;;;;;;;;;5000499;28;20734;-74
2022/05/09 09:40:43;;;;;;;5.18;1.80;;;;;;;;;;4958065;28;20226;-73
2022/05/09 09:43:11;;;;;;;5.97;2.10;;;;;;;;;;4969938;28;20220;-75
2022/05/09 09:45:44;;;;;;;4.32;2.03;;;;;;;;;;4985902;28;20221;-74
2022/05/09 09:48:11;;;;;;;5.10;2.00;;;;;;;;;;4943418;28;20280;-75
2022/05/09 09:50:52;;;;;;;4.82;2.08;;;;;;;;;;4985400;28;20630;-74
2022/05/09 09:53:38;;;;;;;6.60;2.20;;;;;;;;;;4966150;28;20284;-74
2022/05/09 09:56:21;;;;;;;4.95;2.00;;;;;;;;;;4984744;28;20218;-74
2022/05/09 09:58:49;;;;;;;9.30;2.20;;;;;;;;;;4973070;28;20240;-73
2022/05/09 10:01:24;;;;;;;6.43;2.13;;;;;;;;;;4972642;28;20279;-73
2022/05/09 10:04:11;;;;;;;6.15;2.28;;;;;;;;;;4989472;28;20233;-73
2022/05/09 10:07:26;;;;;;;6.82;2.40;;;;;;;;;;4972802;28;20612;-73
2022/05/09 10:10:11;;;;;;;2.60;1.90;;;;;;;;;;4994776;28;20261;-76
2022/05/09 10:12:44;;;;;;;4.72;2.00;;;;;;;;;;4988216;28;20240;-73
2022/05/09 10:15:26;;;;;;;7.03;2.25;;;;;;;;;;4982960;28;20225;-74
2022/05/09 10:17:54;;;;;;;9.38;2.40;;;;;;;;;;4954384;28;20221;-74
2022/05/09 10:20:27;;;;;;;4.45;2.10;;;;;;;;;;4956777;28;20629;-75
2022/05/09 10:25:39;;;;;;;3.90;2.10;;;;;;;;;;4974245;28;20229;-74
2022/05/09 10:28:07;;;;;;;6.60;2.20;;;;;;;;;;4953719;28;20222;-75
2022/05/09 10:30:37;;;;;;;4.50;1.90;;;;;;;;;;4982034;28;20725;-74
2022/05/09 10:33:20;;;;;;;6.15;2.10;;;;;;;;;;4966662;28;20226;-74
2022/05/09 10:35:53;;;;;;;5.20;2.10;;;;;;;;;;4954195;28;20225;-76
2022/05/09 10:38:21;;;;;;;4.88;2.05;;;;;;;;;;4985682;28;20231;-76
2022/05/09 10:40:55;;;;;;;6.07;2.10;;;;;;;;;;4967066;28;20715;-74
2022/05/09 10:43:29;;;;;;;6.68;2.13;;;;;;;;;;4975868;28;20315;-76
2022/05/09 10:45:54;;;;;;;5.30;2.17;;;;;;;;;;4964026;28;20229;-75
2022/05/09 10:48:25;;;;;;;5.15;2.20;;;;;;;;;;4973452;28;20283;-75
2022/05/09 10:50:54;;;;;;;7.72;2.10;;;;;;;;;;4987771;28;20233;-74
2022/05/09 10:53:34;;;;;;;5.78;2.10;;;;;;;;;;4980781;28;20284;-74
2022/05/09 10:56:11;;;;;;;5.53;2.30;;;;;;;;;;4977485;28;20249;-75
2022/05/09 10:59:00;;;;;;;3.70;1.92;;;;;;;;;;4987118;28;20221;-75
2022/05/09 11:01:56;;;;;;;4.78;2.03;;;;;;;;;;4982631;28;20300;-75
2022/05/09 11:04:28;;;;;;;4.35;1.90;;;;;;;;;;4977867;28;22094;-72
2022/05/09 11:07:16;;;;;;;4.95;2.00;;;;;;;;;;4980897;28;20240;-73
2022/05/09 11:09:53;;;;;;;3.40;1.80;;;;;;;;;;4980082;28;20311;-72
2022/05/09 11:12:42;;;;;;;5.07;1.80;;;;;;;;;;4985859;28;20563;-74
2022/05/09 11:15:14;;;;;;;3.85;1.98;;;;;;;;;;4992568;28;20377;-73
2022/05/09 11:18:07;;;;;;;4.07;1.85;;;;;;;;;;4991807;28;20637;-74
2022/05/09 11:20:51;;;;;;;5.45;1.90;;;;;;;;;;4976301;28;20217;-72
2022/05/09 11:23:29;;;;;;;4.47;2.13;;;;;;;;;;4978666;28;20316;-75
2022/05/09 11:26:23;;;;;;;5.72;2.30;;;;;;;;;;4962059;28;20225;-73
2022/05/09 11:29:18;;;;;;;7.35;2.20;;;;;;;;;;4988140;28;20326;-73
2022/05/09 11:32:08;;;;;;;4.63;1.92;;;;;;;;;;4982540;28;20662;-73
2022/05/09 11:34:36;;;;;;;6.82;2.25;;;;;;;;;;4998106;28;20229;-73
2022/05/09 11:37:14;;;;;;;3.83;1.90;;;;;;;;;;4983214;28;20229;-74
2022/05/09 11:40:19;;;;;;;5.47;2.28;;;;;;;;;;4984522;28;20283;-74
2022/05/09 11:45:58;;;;;;;6.15;2.40;;;;;;;;;;4983893;28;20303;-74
2022/05/09 11:48:42;;;;;;;7.00;2.20;;;;;;;;;;4979671;28;20226;-74
2022/05/09 11:51:45;;;;;;;5.47;1.92;;;;;;;;;;4999297;28;20237;-74
2022/05/09 11:54:22;;;;;;;5.22;1.88;;;;;;;;;;4988402;28;20291;-73
2022/05/09 11:56:53;;;;;;;6.60;2.05;;;;;;;;;;4968616;28;20710;-73
2022/05/09 11:59:21;;;;;;;6.57;2.25;;;;;;;;;;4988493;28;20214;-72
2022/05/09 12:01:54;;;;;;;5.70;1.80;;;;;;;;;;5006907;28;20225;-73
2022/05/09 12:04:43;;;;;;;6.28;1.88;;;;;;;;;;4954802;28;20245;-74
2022/05/09 12:07:31;;;;;;;4.82;2.00;;;;;;;;;;4986284;28;20236;-73
2022/05/09 12:10:01;;;;;;;3.83;1.67;;;;;;;;;;4997523;28;20225;-72
2022/05/09 12:12:41;;;;;;;6.07;1.95;;;;;;;;;;4988549;28;20229;-72
2022/05/09 12:15:12;;;;;;;4.60;1.92;;;;;;;;;;4981821;28;20230;-74
2022/05/09 12:17:38;;;;;;;4.97;1.90;;;;;;;;;;4991486;28;20222;-73
2022/05/09 12:20:31;;;;;;;2.70;1.80;;;;;;;;;;4986116;28;20218;-72
2022/05/09 12:22:57;;;;;;;4.75;1.98;;;;;;;;;;4976501;28;20745;-73
2022/05/09 12:25:44;;;;;;;3.13;1.83;;;;;;;;;;4987636;28;20605;-73
2022/05/09 12:28:18;;;;;;;3.28;1.80;;;;;;;;;;4983090;28;20221;-74
2022/05/09 12:30:46;;;;;;;5.15;1.70;;;;;;;;;;4975670;28;20325;-77
2022/05/09 12:33:34;;;;;;;3.20;1.85;;;;;;;;;;4998810;28;20280;-75
2022/05/09 12:36:32;;;;;;;5.13;1.80;;;;;;;;;;4993594;28;20280;-73
2022/05/09 12:39:17;;;;;;;4.53;1.80;;;;;;;;;;4970072;28;20226;-74
2022/05/09 12:41:53;;;;;;;3.72;1.90;;;;;;;;;;4981358;28;20258;-75
2022/05/09 12:44:34;;;;;;;4.65;1.88;;;;;;;;;;4975860;28;20234;-74
2022/05/09 12:47:08;;;;;;;5.07;2.20;;;;;;;;;;4982898;28;20240;-73
2022/05/09 12:49:53;;;;;;;6.13;1.83;;;;;;;;;;4990923;28;20449;-73
2022/05/09 12:52:21;;;;;;;3.40;1.83;;;;;;;;;;4978370;28;20641;-75
2022/05/09 12:57:54;;;;;;;3.05;1.80;;;;;;;;;;4955867;28;20801;-74
2022/05/09 13:00:23;;;;;;;6.28;2.03;;;;;;;;;;4935503;29;20227;-76
2022/05/09 13:02:50;;;;;;;3.97;2.10;;;;;;;;;;4966817;28;20687;-76
2022/05/09 13:05:16;;;;;;;7.75;2.00;;;;;;;;;;4991291;28;20719;-74
2022/05/09 13:07:57;;;;;;;4.35;1.85;;;;;;;;;;4978185;28;20222;-72
2022/05/09 13:10:23;;;;;;;6.55;2.05;;;;;;;;;;4981123;28;20233;-75
2022/05/09 13:12:56;;;;;;;5.07;1.80;;;;;;;;;;4982281;28;20583;-74
2022/05/09 13:15:22;;;;;;;4.75;1.77;;;;;;;;;;4957694;28;20250;-75
2022/05/09 13:17:59;;;;;;;5.35;2.00;;;;;;;;;;4989102;28;20264;-76
2022/05/09 13:20:27;;;;;;;4.20;1.70;;;;;;;;;;4973320;28;20248;-73
2022/05/09 13:23:06;;;;;;;4.50;1.60;;;;;;;;;;4997124;28;20287;-75
2022/05/09 13:25:37;;;;;;;5.95;2.00;;;;;;;;;;4989370;28;20230;-74
2022/05/09 13:28:07;;;;;;;2.67;1.60;;;;;;;;;;4984896;28;20284;-75
2022/05/09 13:30:40;;;;;;;3.33;1.80;;;;;;;;;;4949596;28;20244;-75
2022/05/09 13:33:06;;;;;;;4.10;1.67;;;;;;;;;;4982194;28;20226;-75
2022/05/09 13:35:34;;;;;;;5.75;1.83;;;;;;;;;;4987660;28;20308;-73
2022/05/09 13:38:22;;;;;;;2.85;1.85;;;;;;;;;;4991951;28;20702;-74
2022/05/09 13:40:48;;;;;;;5.32;1.88;;;;;;;;;;4981374;28;20312;-73
2022/05/09 13:43:16;;;;;;;4.10;1.90;;;;;;;;;;4940970;28;20230;-74
2022/05/09 13:45:43;;;;;;;5.00;2.03;;;;;;;;;;4969373;28;20217;-77
2022/05/09 13:48:20;;;;;;;6.60;1.92;;;;;;;;;;4974391;28;20229;-74
2022/05/09 13:50:48;;;;;;;5.35;1.92;;;;;;;;;;4988129;28;20226;-74
2022/05/09 13:53:24;;;;;;;4.18;1.92;;;;;;;;;;4964920;28;20283;-72
2022/05/09 13:55:50;;;;;;;4.45;1.92;;;;;;;;;;4985673;28;20308;-76
2022/05/09 13:58:18;;;;;;;8.55;2.08;;;;;;;;;;4956244;28;20297;-74
2022/05/09 14:00:46;;;;;;;3.80;1.98;;;;;;;;;;4983564;28;20248;-75
2022/05/09 14:03:26;;;;;;;5.53;1.88;;;;;;;;;;4968368;28;20224;-74
2022/05/09 14:05:53;;;;;;;5.30;1.83;;;;;;;;;;5001160;28;20235;-74
2022/05/09 14:08:19;;;;;;;7.40;2.33;;;;;;;;;;4970204;28;20220;-74
2022/05/09 14:10:49;;;;;;;3.92;1.98;;;;;;;;;;4989399;28;20256;-74
2022/05/09 14:13:29;;;;;;;7.03;2.28;;;;;;;;;;4983177;28;20283;-74
2022/05/09 14:16:27;;;;;;;4.25;1.88;;;;;;;;;;4989690;28;20217;-73
2022/05/09 14:19:06;;;;;;;35.75;3.80;;;;;;;;;;4979101;28;20225;-74
2022/05/09 14:21:51;;;;;;;20.63;2.78;;;;;;;;;;4965139;28;20217;-75
2022/05/09 14:24:27;;;;;;;4.72;2.00;;;;;;;;;;4982577;28;20225;-76
2022/05/09 14:29:42;;;;;;;4.10;1.85;;;;;;;;;;4993673;28;20214;-76
2022/05/09 14:32:12;;;;;;;4.30;1.90;;;;;;;;;;4984334;28;20230;-76
2022/05/09 14:34:49;;;;;;;4.93;1.90;;;;;;;;;;4985410;28;20234;-74
2022/05/09 14:37:19;;;;;;;16.38;2.70;;;;;;;;;;4978314;28;20719;-75
2022/05/09 14:39:46;;;;;;;3.80;1.80;;;;;;;;;;4984249;28;20735;-75
2022/05/09 14:42:17;;;;;;;7.40;1.90;;;;;;;;;;4972856;28;20206;-74
2022/05/09 14:44:43;;;;;;;5.88;1.80;;;;;;;;;;4972338;28;20222;-75
2022/05/09 14:47:11;;;;;;;4.32;1.75;;;;;;;;;;4972051;28;20571;-75
2022/05/09 14:50:08;;;;;;;4.47;1.60;;;;;;;;;;4981505;28;20220;-74
2022/05/09 14:52:43;;;;;;;4.13;1.80;;;;;;;;;;4977128;28;20225;-74
2022/05/09 14:58:21;;;;;;;3.75;1.73;;;;;;;;;;4984501;28;20228;-75
2022/05/09 15:01:10;;;;;;;4.45;1.60;;;;;;;;;;4951022;28;20225;-74
2022/05/09 15:03:37;;;;;;;3.42;1.90;;;;;;;;;;4981286;28;20772;-74
2022/05/09 15:06:07;;;;;;;5.80;1.80;;;;;;;;;;4986406;28;20222;-74
2022/05/09 15:08:33;;;;;;;3.47;1.73;;;;;;;;;;4982418;28;20224;-74
2022/05/09 15:10:59;;;;;;;7.85;1.73;;;;;;;;;;4939647;28;20730;-74
2022/05/09 15:13:25;;;;;;;5.60;1.65;;;;;;;;;;4982455;28;20312;-73
2022/05/09 15:15:53;;;;;;;5.72;1.50;;;;;;;;;;4956053;28;20225;-75
2022/05/09 15:18:21;;;;;;;4.85;1.73;;;;;;;;;;4966337;28;20222;-76
2022/05/09 15:20:49;;;;;;;5.63;1.75;;;;;;;;;;4971260;28;20234;-76
2022/05/09 15:23:15;;;;;;;4.32;1.77;;;;;;;;;;4989981;28;20725;-77
2022/05/09 15:25:52;;;;;;;3.28;1.95;;;;;;;;;;4975292;28;20259;-76
2022/05/09 15:28:21;;;;;;;3.60;1.70;;;;;;;;;;4968671;28;20218;-74
2022/05/09 15:30:54;;;;;;;4.20;1.70;;;;;;;;;;4973270;28;20233;-73
2022/05/09 15:33:20;;;;;;;5.18;1.60;;;;;;;;;;4997719;28;20225;-73
2022/05/09 15:35:45;;;;;;;6.00;1.90;;;;;;;;;;4986490;28;20604;-73
2022/05/09 15:38:13;;;;;;;4.97;1.90;;;;;;;;;;4974376;28;20213;-73
2022/05/09 15:40:41;;;;;;;3.15;1.65;;;;;;;;;;4973165;28;20256;-71